createdAt,value
2019-05-25T00:01:40.043Z,18.60
2019-05-25T00:11:47.496Z,16.73
2019-05-25T00:21:56.708Z,15.03
2019-05-25T00:32:03.603Z,21.60
2019-05-25T00:42:09.809Z,18.03
2019-05-25T00:52:17.880Z,16.43
2019-05-25T01:02:25.607Z,14.50
2019-05-25T01:12:31.826Z,12.50
2019-05-25T01:22:37.504Z,13.33
2019-05-25T01:32:47.127Z,12.87
2019-05-25T01:42:53.558Z,13.40
2019-05-25T01:53:00.732Z,12.90
2019-05-25T02:03:09.338Z,14.97
2019-05-25T02:13:19.789Z,10.93
2019-05-25T02:23:27.247Z,9.90
2019-05-25T02:33:36.701Z,10.43
2019-05-25T02:43:44.419Z,12.97
2019-05-25T02:53:53.965Z,10.27
2019-05-25T03:04:04.010Z,9.43
2019-05-25T03:14:12.373Z,14.30
2019-05-25T03:24:19.097Z,18.60
2019-05-25T03:34:26.347Z,10.70
2019-05-25T03:44:32.723Z,14.10
2019-05-25T03:54:38.833Z,11.17
2019-05-25T04:04:44.946Z,12.23
2019-05-25T04:14:50.995Z,9.37
2019-05-25T04:24:58.323Z,14.77
2019-05-25T04:35:10.841Z,11.67
2019-05-25T04:45:19.364Z,13.05
2019-05-25T04:55:26.525Z,13.70
2019-05-25T05:05:33.547Z,12.33
2019-05-25T05:15:40.901Z,15.55
2019-05-25T05:25:47.641Z,18.05
2019-05-25T05:35:54.625Z,12.68
2019-05-25T05:46:03.662Z,12.45
2019-05-25T05:56:09.778Z,7.20
2019-05-25T06:06:17.365Z,9.40
2019-05-25T06:16:23.578Z,7.40
2019-05-25T06:26:29.739Z,7.00
2019-05-25T06:36:37.329Z,6.78
2019-05-25T06:46:46.197Z,10.30
2019-05-25T06:56:53.969Z,14.53
2019-05-25T07:07:00.708Z,15.23
2019-05-25T07:17:06.852Z,8.65
2019-05-25T07:27:13.123Z,7.80
2019-05-25T07:37:21.518Z,6.35
2019-05-25T07:47:30.314Z,12.65
2019-05-25T07:57:37.836Z,6.10
2019-05-25T08:07:44.374Z,6.30
2019-05-25T08:17:52.312Z,5.70
2019-05-25T08:27:59.750Z,3.87
2019-05-25T08:38:05.526Z,4.80
2019-05-25T08:48:12.340Z,3.35
2019-05-25T08:58:23.274Z,5.12
2019-05-25T09:08:30.572Z,6.12
2019-05-25T09:18:38.220Z,4.30
2019-05-25T09:28:45.839Z,4.37
2019-05-25T09:38:53.529Z,3.47
2019-05-25T09:49:03.310Z,5.40
2019-05-25T09:59:19.993Z,6.63
2019-05-25T10:09:22.414Z,7.43
2019-05-25T10:19:31.113Z,12.40
2019-05-25T10:29:38.270Z,8.73
2019-05-25T10:39:46.591Z,7.37
2019-05-25T10:49:52.705Z,5.27
2019-05-25T11:00:03.243Z,10.17
2019-05-25T11:10:10.786Z,4.37
2019-05-25T11:20:24.246Z,4.63
2019-05-25T11:30:30.819Z,6.90
2019-05-25T11:40:37.097Z,6.20
2019-05-25T11:50:44.765Z,8.03
2019-05-25T12:00:51.855Z,6.23
2019-05-25T12:10:58.987Z,19.00
2019-05-25T12:21:10.868Z,7.50
2019-05-25T12:31:18.471Z,5.67
2019-05-25T12:41:26.869Z,4.30
2019-05-25T12:51:35.886Z,6.30
2019-05-25T13:01:44.157Z,9.47
2019-05-25T13:11:52.757Z,6.83
2019-05-25T13:21:59.165Z,8.10
2019-05-25T13:32:05.914Z,7.27
2019-05-25T13:42:16.648Z,7.83
2019-05-25T13:52:26.979Z,6.00
2019-05-25T14:02:35.565Z,8.87
2019-05-25T14:12:42.334Z,7.37
2019-05-25T14:22:50.957Z,8.57
2019-05-25T14:32:57.836Z,9.63
2019-05-25T14:43:06.319Z,6.60
2019-05-25T14:53:13.232Z,8.60
2019-05-25T15:03:20.502Z,6.57
2019-05-25T15:13:29.789Z,5.33
2019-05-25T15:23:35.598Z,8.57
2019-05-25T15:33:43.493Z,3.03
2019-05-25T15:43:51.672Z,4.20
2019-05-25T15:54:10.689Z,4.17
2019-05-25T16:04:25.488Z,3.93
2019-05-25T16:14:33.144Z,3.00
2019-05-25T16:24:42.148Z,3.80
2019-05-25T16:34:49.360Z,3.40
2019-05-25T16:44:55.723Z,5.07
2019-05-25T16:55:02.531Z,3.50
2019-05-25T17:05:11.134Z,6.17
2019-05-25T17:15:17.918Z,5.70
2019-05-25T17:25:24.380Z,5.20
2019-05-25T17:35:30.962Z,3.67
2019-05-25T17:45:42.837Z,5.40
2019-05-25T17:55:56.807Z,4.17
2019-05-25T18:06:04.984Z,6.23
2019-05-25T18:16:14.041Z,7.33
2019-05-25T18:26:21.248Z,4.23
2019-05-25T18:36:29.878Z,2.47
2019-05-25T18:46:37.434Z,4.37
2019-05-25T18:56:45.749Z,3.80
2019-05-25T19:06:53.846Z,5.77
2019-05-25T19:17:00.983Z,6.53
2019-05-25T19:27:08.683Z,7.63
2019-05-25T19:37:19.131Z,5.97
2019-05-25T19:47:24.633Z,9.73
2019-05-25T19:57:32.229Z,7.80
2019-05-25T20:07:40.240Z,7.43
2019-05-25T20:17:48.681Z,4.93
2019-05-25T20:27:55.151Z,6.80
2019-05-25T20:38:02.161Z,8.37
2019-05-25T20:48:10.888Z,7.10
2019-05-25T20:58:27.402Z,10.13
2019-05-25T21:08:34.927Z,10.50
2019-05-25T21:18:42.095Z,10.40
2019-05-25T21:28:49.338Z,10.97
2019-05-25T21:38:55.393Z,10.47
2019-05-25T21:49:01.330Z,6.33
2019-05-25T21:59:07.454Z,9.67
2019-05-25T22:09:14.150Z,6.43
2019-05-25T22:19:19.928Z,9.47
2019-05-25T22:29:25.859Z,13.97
2019-05-25T22:39:33.572Z,9.23
2019-05-25T22:49:42.586Z,10.03
2019-05-25T22:59:48.554Z,13.37
2019-05-25T23:09:55.283Z,11.83
2019-05-25T23:20:01.816Z,10.20
2019-05-25T23:30:09.008Z,8.67
2019-05-25T23:40:17.404Z,8.87
2019-05-25T23:50:23.130Z,8.77
